sensor_id;sensor_type;location;lat;lon;timestamp;temperature;humidity
18906;DHT22;9585;51.018;4.282;2023-12-14T00:00:48;8.60;99.90
18906;DHT22;9585;51.018;4.282;2023-12-14T00:03:16;8.70;99.90
18906;DHT22;9585;51.018;4.282;2023-12-14T00:05:45;8.70;99.90
18906;DHT22;9585;51.018;4.282;2023-12-14T00:08:13;8.80;99.90
18906;DHT22;9585;51.018;4.282;2023-12-14T00:10:40;8.90;99.90
18906;DHT22;9585;51.018;4.282;2023-12-14T00:13:08;8.90;99.90
18906;DHT22;9585;51.018;4.282;2023-12-14T00:15:36;8.90;99.90
18906;DHT22;9585;51.018;4.282;2023-12-14T00:18:03;8.90;99.90
18906;DHT22;9585;51.018;4.282;2023-12-14T00:20:32;8.90;99.90
18906;DHT22;9585;51.018;4.282;2023-12-14T00:23:01;8.80;99.90
18906;DHT22;9585;51.018;4.282;2023-12-14T00:25:29;8.80;99.90
18906;DHT22;9585;51.018;4.282;2023-12-14T00:27:56;8.80;99.90
18906;DHT22;9585;51.018;4.282;2023-12-14T00:30:24;8.80;99.90
18906;DHT22;9585;51.018;4.282;2023-12-14T00:32:51;8.70;99.90
18906;DHT22;9585;51.018;4.282;2023-12-14T00:35:19;8.70;99.90
18906;DHT22;9585;51.018;4.282;2023-12-14T00:37:46;8.70;99.90
18906;DHT22;9585;51.018;4.282;2023-12-14T00:40:16;8.80;99.90
18906;DHT22;9585;51.018;4.282;2023-12-14T00:42:43;8.80;99.90
18906;DHT22;9585;51.018;4.282;2023-12-14T00:45:11;8.70;99.90
18906;DHT22;9585;51.018;4.282;2023-12-14T00:47:39;8.80;99.90
18906;DHT22;9585;51.018;4.282;2023-12-14T00:50:08;8.80;99.90
18906;DHT22;9585;51.018;4.282;2023-12-14T00:52:35;8.80;99.90
18906;DHT22;9585;51.018;4.282;2023-12-14T00:55:04;8.80;99.90
18906;DHT22;9585;51.018;4.282;2023-12-14T00:57:33;8.70;99.90
18906;DHT22;9585;51.018;4.282;2023-12-14T01:00:01;8.60;99.90
18906;DHT22;9585;51.018;4.282;2023-12-14T01:02:32;8.50;99.90
18906;DHT22;9585;51.018;4.282;2023-12-14T01:05:00;8.50;99.90
18906;DHT22;9585;51.018;4.282;2023-12-14T01:07:27;8.50;99.90
18906;DHT22;9585;51.018;4.282;2023-12-14T01:09:55;8.50;99.90
18906;DHT22;9585;51.018;4.282;2023-12-14T01:12:23;8.50;99.90
18906;DHT22;9585;51.018;4.282;2023-12-14T01:14:52;8.40;99.90
18906;DHT22;9585;51.018;4.282;2023-12-14T01:17:19;8.40;99.90
18906;DHT22;9585;51.018;4.282;2023-12-14T01:19:47;8.40;99.90
18906;DHT22;9585;51.018;4.282;2023-12-14T01:22:15;8.50;99.90
18906;DHT22;9585;51.018;4.282;2023-12-14T01:24:42;8.40;99.90
18906;DHT22;9585;51.018;4.282;2023-12-14T01:27:10;8.50;99.90
18906;DHT22;9585;51.018;4.282;2023-12-14T01:29:39;8.40;99.90
18906;DHT22;9585;51.018;4.282;2023-12-14T01:32:09;8.40;99.90
18906;DHT22;9585;51.018;4.282;2023-12-14T01:34:36;8.40;99.90
18906;DHT22;9585;51.018;4.282;2023-12-14T01:37:05;8.50;99.90
18906;DHT22;9585;51.018;4.282;2023-12-14T01:39:32;8.60;99.90
18906;DHT22;9585;51.018;4.282;2023-12-14T01:42:00;8.70;99.90
18906;DHT22;9585;51.018;4.282;2023-12-14T01:44:28;8.80;99.90
18906;DHT22;9585;51.018;4.282;2023-12-14T01:46:56;8.80;99.90
18906;DHT22;9585;51.018;4.282;2023-12-14T01:49:25;8.80;99.90
18906;DHT22;9585;51.018;4.282;2023-12-14T01:51:53;8.70;99.90
18906;DHT22;9585;51.018;4.282;2023-12-14T01:54:21;8.60;99.90
18906;DHT22;9585;51.018;4.282;2023-12-14T01:56:48;8.70;99.90
18906;DHT22;9585;51.018;4.282;2023-12-14T01:59:16;8.60;99.90
18906;DHT22;9585;51.018;4.282;2023-12-14T02:01:45;8.60;99.90
18906;DHT22;9585;51.018;4.282;2023-12-14T02:04:14;8.60;99.90
18906;DHT22;9585;51.018;4.282;2023-12-14T02:06:43;8.60;99.90
18906;DHT22;9585;51.018;4.282;2023-12-14T02:09:11;8.50;99.90
18906;DHT22;9585;51.018;4.282;2023-12-14T02:11:39;8.50;99.90
18906;DHT22;9585;51.018;4.282;2023-12-14T02:14:09;8.40;99.90
18906;DHT22;9585;51.018;4.282;2023-12-14T02:16:37;8.50;99.90
18906;DHT22;9585;51.018;4.282;2023-12-14T02:19:06;8.40;99.90
18906;DHT22;9585;51.018;4.282;2023-12-14T02:21:33;8.40;99.90
18906;DHT22;9585;51.018;4.282;2023-12-14T02:24:04;8.30;99.90
18906;DHT22;9585;51.018;4.282;2023-12-14T02:26:32;8.40;99.90
18906;DHT22;9585;51.018;4.282;2023-12-14T02:28:59;8.30;99.90
18906;DHT22;9585;51.018;4.282;2023-12-14T02:31:27;8.30;99.90
18906;DHT22;9585;51.018;4.282;2023-12-14T02:33:55;8.20;99.90
18906;DHT22;9585;51.018;4.282;2023-12-14T02:36:22;8.30;99.90
18906;DHT22;9585;51.018;4.282;2023-12-14T02:38:50;8.20;99.90
18906;DHT22;9585;51.018;4.282;2023-12-14T02:41:20;8.20;99.90
18906;DHT22;9585;51.018;4.282;2023-12-14T02:43:47;8.00;99.90
18906;DHT22;9585;51.018;4.282;2023-12-14T02:46:15;7.90;99.90
18906;DHT22;9585;51.018;4.282;2023-12-14T02:48:44;7.70;99.90
18906;DHT22;9585;51.018;4.282;2023-12-14T02:51:14;7.70;99.90
18906;DHT22;9585;51.018;4.282;2023-12-14T02:53:42;7.70;99.90
18906;DHT22;9585;51.018;4.282;2023-12-14T02:56:10;7.60;99.90
18906;DHT22;9585;51.018;4.282;2023-12-14T02:58:40;7.40;99.90
18906;DHT22;9585;51.018;4.282;2023-12-14T03:01:07;7.40;99.90
18906;DHT22;9585;51.018;4.282;2023-12-14T03:03:38;7.30;99.90
18906;DHT22;9585;51.018;4.282;2023-12-14T03:06:06;7.40;99.90
18906;DHT22;9585;51.018;4.282;2023-12-14T03:08:34;7.30;99.90
18906;DHT22;9585;51.018;4.282;2023-12-14T03:11:02;7.20;99.90
18906;DHT22;9585;51.018;4.282;2023-12-14T03:13:30;7.20;99.90
18906;DHT22;9585;51.018;4.282;2023-12-14T03:15:59;7.10;99.90
18906;DHT22;9585;51.018;4.282;2023-12-14T03:18:27;7.10;99.90
18906;DHT22;9585;51.018;4.282;2023-12-14T03:20:55;7.00;99.90
18906;DHT22;9585;51.018;4.282;2023-12-14T03:23:22;7.00;99.90
18906;DHT22;9585;51.018;4.282;2023-12-14T03:25:50;6.90;99.90
18906;DHT22;9585;51.018;4.282;2023-12-14T03:28:18;6.80;99.90
18906;DHT22;9585;51.018;4.282;2023-12-14T03:30:46;6.70;99.90
18906;DHT22;9585;51.018;4.282;2023-12-14T03:33:15;6.80;99.90
18906;DHT22;9585;51.018;4.282;2023-12-14T03:35:43;6.90;99.90
18906;DHT22;9585;51.018;4.282;2023-12-14T03:38:12;6.80;99.90
18906;DHT22;9585;51.018;4.282;2023-12-14T03:40:41;6.80;99.90
18906;DHT22;9585;51.018;4.282;2023-12-14T03:43:08;6.70;99.90
18906;DHT22;9585;51.018;4.282;2023-12-14T03:45:36;6.60;99.90
18906;DHT22;9585;51.018;4.282;2023-12-14T03:48:04;6.70;99.90
18906;DHT22;9585;51.018;4.282;2023-12-14T03:50:33;6.50;99.90
18906;DHT22;9585;51.018;4.282;2023-12-14T03:53:01;6.50;99.90
18906;DHT22;9585;51.018;4.282;2023-12-14T03:55:28;6.40;99.90
18906;DHT22;9585;51.018;4.282;2023-12-14T03:57:56;6.40;99.90
18906;DHT22;9585;51.018;4.282;2023-12-14T04:00:24;6.50;99.90
18906;DHT22;9585;51.018;4.282;2023-12-14T04:02:51;6.40;99.90
18906;DHT22;9585;51.018;4.282;2023-12-14T04:05:19;6.40;99.90
18906;DHT22;9585;51.018;4.282;2023-12-14T04:07:49;6.40;99.90
18906;DHT22;9585;51.018;4.282;2023-12-14T04:10:17;6.40;99.90
18906;DHT22;9585;51.018;4.282;2023-12-14T04:12:45;6.40;99.90
18906;DHT22;9585;51.018;4.282;2023-12-14T04:15:13;6.30;99.90
18906;DHT22;9585;51.018;4.282;2023-12-14T04:17:41;6.30;99.90
18906;DHT22;9585;51.018;4.282;2023-12-14T04:20:09;6.40;99.90
18906;DHT22;9585;51.018;4.282;2023-12-14T04:22:37;6.50;99.90
18906;DHT22;9585;51.018;4.282;2023-12-14T04:25:09;6.50;99.90
18906;DHT22;9585;51.018;4.282;2023-12-14T04:27:36;6.60;99.90
18906;DHT22;9585;51.018;4.282;2023-12-14T04:30:05;6.60;99.90
18906;DHT22;9585;51.018;4.282;2023-12-14T04:32:36;6.50;99.90
18906;DHT22;9585;51.018;4.282;2023-12-14T04:35:04;6.50;99.90
18906;DHT22;9585;51.018;4.282;2023-12-14T04:37:32;6.50;99.90
18906;DHT22;9585;51.018;4.282;2023-12-14T04:40:02;6.50;99.90
18906;DHT22;9585;51.018;4.282;2023-12-14T04:42:31;6.60;99.90
18906;DHT22;9585;51.018;4.282;2023-12-14T04:44:58;6.60;99.90
18906;DHT22;9585;51.018;4.282;2023-12-14T04:47:26;6.60;99.90
18906;DHT22;9585;51.018;4.282;2023-12-14T04:49:54;6.50;99.90
18906;DHT22;9585;51.018;4.282;2023-12-14T04:52:22;6.40;99.90
18906;DHT22;9585;51.018;4.282;2023-12-14T04:54:50;6.30;99.90
18906;DHT22;9585;51.018;4.282;2023-12-14T04:57:17;6.30;99.90
18906;DHT22;9585;51.018;4.282;2023-12-14T04:59:47;6.20;99.90
18906;DHT22;9585;51.018;4.282;2023-12-14T05:02:14;6.20;99.90
18906;DHT22;9585;51.018;4.282;2023-12-14T05:04:42;6.20;99.90
18906;DHT22;9585;51.018;4.282;2023-12-14T05:07:09;6.30;99.90
18906;DHT22;9585;51.018;4.282;2023-12-14T05:09:37;6.20;99.90
18906;DHT22;9585;51.018;4.282;2023-12-14T05:12:05;6.10;99.90
18906;DHT22;9585;51.018;4.282;2023-12-14T05:14:33;6.10;99.90
18906;DHT22;9585;51.018;4.282;2023-12-14T05:17:02;6.10;99.90
18906;DHT22;9585;51.018;4.282;2023-12-14T05:19:32;6.10;99.90
18906;DHT22;9585;51.018;4.282;2023-12-14T05:22:00;6.20;99.90
18906;DHT22;9585;51.018;4.282;2023-12-14T05:24:28;6.20;99.90
18906;DHT22;9585;51.018;4.282;2023-12-14T05:26:55;6.20;99.90
18906;DHT22;9585;51.018;4.282;2023-12-14T05:29:23;6.20;99.90
18906;DHT22;9585;51.018;4.282;2023-12-14T05:31:51;6.20;99.90
18906;DHT22;9585;51.018;4.282;2023-12-14T05:34:23;6.20;99.90
18906;DHT22;9585;51.018;4.282;2023-12-14T05:36:51;6.20;99.90
18906;DHT22;9585;51.018;4.282;2023-12-14T05:39:18;6.10;99.90
18906;DHT22;9585;51.018;4.282;2023-12-14T05:41:46;6.20;99.90
18906;DHT22;9585;51.018;4.282;2023-12-14T05:44:14;6.10;99.90
18906;DHT22;9585;51.018;4.282;2023-12-14T05:46:42;6.10;99.90
18906;DHT22;9585;51.018;4.282;2023-12-14T05:49:09;6.10;99.90
18906;DHT22;9585;51.018;4.282;2023-12-14T05:51:38;6.10;99.90
18906;DHT22;9585;51.018;4.282;2023-12-14T05:54:06;6.20;99.90
18906;DHT22;9585;51.018;4.282;2023-12-14T05:56:34;6.20;99.90
18906;DHT22;9585;51.018;4.282;2023-12-14T05:59:02;6.10;99.90
18906;DHT22;9585;51.018;4.282;2023-12-14T06:01:30;6.10;99.90
18906;DHT22;9585;51.018;4.282;2023-12-14T06:03:57;6.10;99.90
18906;DHT22;9585;51.018;4.282;2023-12-14T06:06:25;6.10;99.90
18906;DHT22;9585;51.018;4.282;2023-12-14T06:08:55;6.10;99.90
18906;DHT22;9585;51.018;4.282;2023-12-14T06:11:22;6.10;99.90
18906;DHT22;9585;51.018;4.282;2023-12-14T06:13:50;6.20;99.90
18906;DHT22;9585;51.018;4.282;2023-12-14T06:16:18;6.20;99.90
18906;DHT22;9585;51.018;4.282;2023-12-14T06:18:46;6.10;99.90
18906;DHT22;9585;51.018;4.282;2023-12-14T06:21:14;6.10;99.90
18906;DHT22;9585;51.018;4.282;2023-12-14T06:23:41;6.10;99.90
18906;DHT22;9585;51.018;4.282;2023-12-14T06:26:10;6.20;99.90
18906;DHT22;9585;51.018;4.282;2023-12-14T06:28:38;6.10;99.90
18906;DHT22;9585;51.018;4.282;2023-12-14T06:31:06;6.10;99.90
18906;DHT22;9585;51.018;4.282;2023-12-14T06:33:38;6.10;99.90
18906;DHT22;9585;51.018;4.282;2023-12-14T06:36:08;6.10;99.90
18906;DHT22;9585;51.018;4.282;2023-12-14T06:38:38;6.10;99.90
18906;DHT22;9585;51.018;4.282;2023-12-14T06:41:06;6.00;99.90
18906;DHT22;9585;51.018;4.282;2023-12-14T06:43:36;6.10;99.90
18906;DHT22;9585;51.018;4.282;2023-12-14T06:46:04;6.10;99.90
18906;DHT22;9585;51.018;4.282;2023-12-14T06:48:31;6.20;99.90
18906;DHT22;9585;51.018;4.282;2023-12-14T06:50:59;6.30;99.90
18906;DHT22;9585;51.018;4.282;2023-12-14T06:53:27;6.30;99.90
18906;DHT22;9585;51.018;4.282;2023-12-14T06:55:55;6.20;99.90
18906;DHT22;9585;51.018;4.282;2023-12-14T06:58:23;6.20;99.90
18906;DHT22;9585;51.018;4.282;2023-12-14T07:00:53;6.10;99.90
18906;DHT22;9585;51.018;4.282;2023-12-14T07:03:21;6.00;99.90
18906;DHT22;9585;51.018;4.282;2023-12-14T07:05:48;6.00;99.90
18906;DHT22;9585;51.018;4.282;2023-12-14T07:08:17;5.70;99.90
18906;DHT22;9585;51.018;4.282;2023-12-14T07:10:48;5.60;99.90
18906;DHT22;9585;51.018;4.282;2023-12-14T07:13:16;5.60;99.90
18906;DHT22;9585;51.018;4.282;2023-12-14T07:15:43;5.50;99.90
18906;DHT22;9585;51.018;4.282;2023-12-14T07:18:12;5.40;99.90
18906;DHT22;9585;51.018;4.282;2023-12-14T07:20:40;5.50;99.90
18906;DHT22;9585;51.018;4.282;2023-12-14T07:23:08;5.40;99.90
18906;DHT22;9585;51.018;4.282;2023-12-14T07:25:35;5.30;99.90
18906;DHT22;9585;51.018;4.282;2023-12-14T07:28:03;5.40;99.90
18906;DHT22;9585;51.018;4.282;2023-12-14T07:30:31;5.40;99.90
18906;DHT22;9585;51.018;4.282;2023-12-14T07:33:01;5.50;99.90
18906;DHT22;9585;51.018;4.282;2023-12-14T07:35:30;5.60;99.90
18906;DHT22;9585;51.018;4.282;2023-12-14T07:37:58;5.70;99.90
18906;DHT22;9585;51.018;4.282;2023-12-14T07:40:25;5.70;99.90
18906;DHT22;9585;51.018;4.282;2023-12-14T07:42:54;5.60;99.90
18906;DHT22;9585;51.018;4.282;2023-12-14T07:45:22;5.50;99.90
18906;DHT22;9585;51.018;4.282;2023-12-14T07:47:50;5.50;99.90
18906;DHT22;9585;51.018;4.282;2023-12-14T07:50:17;5.50;99.90
18906;DHT22;9585;51.018;4.282;2023-12-14T07:52:47;5.60;99.90
18906;DHT22;9585;51.018;4.282;2023-12-14T07:55:14;5.60;99.90
18906;DHT22;9585;51.018;4.282;2023-12-14T07:57:43;5.70;99.90
18906;DHT22;9585;51.018;4.282;2023-12-14T08:00:12;5.80;99.90
18906;DHT22;9585;51.018;4.282;2023-12-14T08:02:39;5.90;99.90
18906;DHT22;9585;51.018;4.282;2023-12-14T08:05:08;6.00;99.90
18906;DHT22;9585;51.018;4.282;2023-12-14T08:07:36;6.00;99.90
18906;DHT22;9585;51.018;4.282;2023-12-14T08:10:07;6.10;99.90
18906;DHT22;9585;51.018;4.282;2023-12-14T08:12:35;6.10;99.90
18906;DHT22;9585;51.018;4.282;2023-12-14T08:15:03;6.10;99.90
18906;DHT22;9585;51.018;4.282;2023-12-14T08:17:31;6.10;99.90
18906;DHT22;9585;51.018;4.282;2023-12-14T08:19:58;6.10;99.90
18906;DHT22;9585;51.018;4.282;2023-12-14T08:22:26;6.10;99.90
18906;DHT22;9585;51.018;4.282;2023-12-14T08:24:53;6.10;99.90
18906;DHT22;9585;51.018;4.282;2023-12-14T08:27:23;6.00;99.90
18906;DHT22;9585;51.018;4.282;2023-12-14T08:29:50;6.00;99.90
18906;DHT22;9585;51.018;4.282;2023-12-14T08:32:18;6.00;99.90
18906;DHT22;9585;51.018;4.282;2023-12-14T08:34:46;5.90;99.90
18906;DHT22;9585;51.018;4.282;2023-12-14T08:37:13;5.90;99.90
18906;DHT22;9585;51.018;4.282;2023-12-14T08:39:41;5.90;99.90
18906;DHT22;9585;51.018;4.282;2023-12-14T08:42:08;6.10;99.90
18906;DHT22;9585;51.018;4.282;2023-12-14T08:44:51;6.30;99.90
18906;DHT22;9585;51.018;4.282;2023-12-14T08:47:19;6.50;99.90
18906;DHT22;9585;51.018;4.282;2023-12-14T08:49:47;6.70;99.90
18906;DHT22;9585;51.018;4.282;2023-12-14T08:52:15;6.80;99.90
18906;DHT22;9585;51.018;4.282;2023-12-14T08:54:43;6.90;99.90
18906;DHT22;9585;51.018;4.282;2023-12-14T08:57:10;6.80;99.90
18906;DHT22;9585;51.018;4.282;2023-12-14T08:59:38;6.90;99.90
18906;DHT22;9585;51.018;4.282;2023-12-14T09:02:07;7.10;99.90
18906;DHT22;9585;51.018;4.282;2023-12-14T09:04:35;7.10;99.90
18906;DHT22;9585;51.018;4.282;2023-12-14T09:07:03;7.10;99.90
18906;DHT22;9585;51.018;4.282;2023-12-14T09:09:31;7.10;99.90
18906;DHT22;9585;51.018;4.282;2023-12-14T09:11:59;7.00;99.90
18906;DHT22;9585;51.018;4.282;2023-12-14T09:14:27;7.10;99.90
18906;DHT22;9585;51.018;4.282;2023-12-14T09:16:55;7.10;99.90
18906;DHT22;9585;51.018;4.282;2023-12-14T09:19:25;7.20;99.90
18906;DHT22;9585;51.018;4.282;2023-12-14T09:21:52;7.10;99.90
18906;DHT22;9585;51.018;4.282;2023-12-14T09:24:20;7.20;99.90
18906;DHT22;9585;51.018;4.282;2023-12-14T09:26:47;7.40;99.90
18906;DHT22;9585;51.018;4.282;2023-12-14T09:29:15;7.40;99.90
18906;DHT22;9585;51.018;4.282;2023-12-14T09:31:44;7.60;99.90
18906;DHT22;9585;51.018;4.282;2023-12-14T09:34:12;7.50;99.90
18906;DHT22;9585;51.018;4.282;2023-12-14T09:36:41;7.40;99.90
18906;DHT22;9585;51.018;4.282;2023-12-14T09:39:09;7.50;99.90
18906;DHT22;9585;51.018;4.282;2023-12-14T09:41:37;7.50;99.90
18906;DHT22;9585;51.018;4.282;2023-12-14T09:44:05;7.40;99.90
18906;DHT22;9585;51.018;4.282;2023-12-14T09:46:34;7.40;99.90
18906;DHT22;9585;51.018;4.282;2023-12-14T09:49:05;7.50;99.90
18906;DHT22;9585;51.018;4.282;2023-12-14T09:51:32;7.60;99.90
18906;DHT22;9585;51.018;4.282;2023-12-14T09:54:15;7.80;99.90
18906;DHT22;9585;51.018;4.282;2023-12-14T09:56:46;7.80;99.90
18906;DHT22;9585;51.018;4.282;2023-12-14T09:59:14;7.80;99.90
18906;DHT22;9585;51.018;4.282;2023-12-14T10:01:42;7.80;99.90
18906;DHT22;9585;51.018;4.282;2023-12-14T10:04:11;7.90;99.90
18906;DHT22;9585;51.018;4.282;2023-12-14T10:06:40;7.80;99.90
18906;DHT22;9585;51.018;4.282;2023-12-14T10:09:09;7.80;99.90
18906;DHT22;9585;51.018;4.282;2023-12-14T10:11:41;7.80;99.90
18906;DHT22;9585;51.018;4.282;2023-12-14T10:14:19;7.90;99.90
18906;DHT22;9585;51.018;4.282;2023-12-14T10:16:48;7.80;99.90
18906;DHT22;9585;51.018;4.282;2023-12-14T10:19:17;7.80;99.90
18906;DHT22;9585;51.018;4.282;2023-12-14T10:21:46;7.80;99.90
18906;DHT22;9585;51.018;4.282;2023-12-14T10:24:15;7.80;99.90
18906;DHT22;9585;51.018;4.282;2023-12-14T10:26:45;7.80;99.90
18906;DHT22;9585;51.018;4.282;2023-12-14T10:29:13;7.70;99.90
18906;DHT22;9585;51.018;4.282;2023-12-14T10:31:40;7.90;99.90
18906;DHT22;9585;51.018;4.282;2023-12-14T10:34:09;8.00;99.90
18906;DHT22;9585;51.018;4.282;2023-12-14T10:36:38;8.20;99.90
18906;DHT22;9585;51.018;4.282;2023-12-14T10:39:08;8.30;99.90
18906;DHT22;9585;51.018;4.282;2023-12-14T10:41:37;8.20;99.90
18906;DHT22;9585;51.018;4.282;2023-12-14T10:44:07;8.20;99.90
18906;DHT22;9585;51.018;4.282;2023-12-14T10:46:41;8.30;99.90
18906;DHT22;9585;51.018;4.282;2023-12-14T10:49:11;8.30;99.90
18906;DHT22;9585;51.018;4.282;2023-12-14T10:51:39;8.50;99.90
18906;DHT22;9585;51.018;4.282;2023-12-14T10:54:08;8.70;99.90
18906;DHT22;9585;51.018;4.282;2023-12-14T10:56:36;8.60;99.90
18906;DHT22;9585;51.018;4.282;2023-12-14T10:59:06;8.40;99.90
18906;DHT22;9585;51.018;4.282;2023-12-14T11:01:34;8.20;99.90
18906;DHT22;9585;51.018;4.282;2023-12-14T11:04:06;8.20;99.90
18906;DHT22;9585;51.018;4.282;2023-12-14T11:06:40;8.20;99.90
18906;DHT22;9585;51.018;4.282;2023-12-14T11:09:12;8.20;99.90
18906;DHT22;9585;51.018;4.282;2023-12-14T11:11:41;8.30;99.90
18906;DHT22;9585;51.018;4.282;2023-12-14T11:14:12;8.10;99.90
18906;DHT22;9585;51.018;4.282;2023-12-14T11:16:44;8.10;99.90
18906;DHT22;9585;51.018;4.282;2023-12-14T11:19:26;8.00;99.90
18906;DHT22;9585;51.018;4.282;2023-12-14T11:22:12;8.00;99.90
18906;DHT22;9585;51.018;4.282;2023-12-14T11:24:54;8.00;99.90
18906;DHT22;9585;51.018;4.282;2023-12-14T11:27:29;8.00;99.90
18906;DHT22;9585;51.018;4.282;2023-12-14T11:30:01;8.00;99.90
18906;DHT22;9585;51.018;4.282;2023-12-14T11:32:41;7.90;99.90
18906;DHT22;9585;51.018;4.282;2023-12-14T11:35:09;7.90;99.90
18906;DHT22;9585;51.018;4.282;2023-12-14T11:37:38;8.00;99.90
18906;DHT22;9585;51.018;4.282;2023-12-14T11:40:14;8.30;99.90
18906;DHT22;9585;51.018;4.282;2023-12-14T11:42:58;8.50;99.90
18906;DHT22;9585;51.018;4.282;2023-12-14T11:45:37;8.70;99.90
18906;DHT22;9585;51.018;4.282;2023-12-14T11:48:09;8.60;99.90
18906;DHT22;9585;51.018;4.282;2023-12-14T11:50:38;8.60;99.90
18906;DHT22;9585;51.018;4.282;2023-12-14T11:53:08;8.40;99.90
18906;DHT22;9585;51.018;4.282;2023-12-14T11:55:39;8.50;99.90
18906;DHT22;9585;51.018;4.282;2023-12-14T11:58:07;8.50;99.90
18906;DHT22;9585;51.018;4.282;2023-12-14T12:00:37;8.50;99.90
18906;DHT22;9585;51.018;4.282;2023-12-14T12:03:10;8.50;99.90
18906;DHT22;9585;51.018;4.282;2023-12-14T12:05:43;8.40;99.90
18906;DHT22;9585;51.018;4.282;2023-12-14T12:08:12;8.40;99.90
18906;DHT22;9585;51.018;4.282;2023-12-14T12:10:42;8.20;99.90
18906;DHT22;9585;51.018;4.282;2023-12-14T12:13:12;8.30;99.90
18906;DHT22;9585;51.018;4.282;2023-12-14T12:15:42;8.30;99.90
18906;DHT22;9585;51.018;4.282;2023-12-14T12:18:11;8.40;99.90
18906;DHT22;9585;51.018;4.282;2023-12-14T12:20:38;8.50;99.90
18906;DHT22;9585;51.018;4.282;2023-12-14T12:23:06;8.50;99.90
18906;DHT22;9585;51.018;4.282;2023-12-14T12:25:34;8.40;99.90
18906;DHT22;9585;51.018;4.282;2023-12-14T12:28:03;8.30;99.90
18906;DHT22;9585;51.018;4.282;2023-12-14T12:30:31;8.40;99.90
18906;DHT22;9585;51.018;4.282;2023-12-14T12:33:01;8.40;99.90
18906;DHT22;9585;51.018;4.282;2023-12-14T12:35:28;8.40;99.90
18906;DHT22;9585;51.018;4.282;2023-12-14T12:37:59;8.40;99.90
18906;DHT22;9585;51.018;4.282;2023-12-14T12:40:26;8.50;99.90
18906;DHT22;9585;51.018;4.282;2023-12-14T12:42:55;8.50;99.90
18906;DHT22;9585;51.018;4.282;2023-12-14T12:45:23;8.60;99.90
18906;DHT22;9585;51.018;4.282;2023-12-14T12:47:53;8.50;99.90
18906;DHT22;9585;51.018;4.282;2023-12-14T12:50:22;8.50;99.90
18906;DHT22;9585;51.018;4.282;2023-12-14T12:52:50;8.50;99.90
18906;DHT22;9585;51.018;4.282;2023-12-14T12:55:18;8.50;99.90
18906;DHT22;9585;51.018;4.282;2023-12-14T12:57:46;8.40;99.90
18906;DHT22;9585;51.018;4.282;2023-12-14T13:00:15;8.50;99.90
18906;DHT22;9585;51.018;4.282;2023-12-14T13:02:44;8.30;99.90
18906;DHT22;9585;51.018;4.282;2023-12-14T13:05:12;8.40;99.90
18906;DHT22;9585;51.018;4.282;2023-12-14T13:07:44;8.40;99.90
18906;DHT22;9585;51.018;4.282;2023-12-14T13:10:37;8.50;99.90
18906;DHT22;9585;51.018;4.282;2023-12-14T13:13:13;8.60;99.90
18906;DHT22;9585;51.018;4.282;2023-12-14T13:15:44;8.60;99.90
18906;DHT22;9585;51.018;4.282;2023-12-14T13:18:27;8.70;99.90
18906;DHT22;9585;51.018;4.282;2023-12-14T13:31:26;8.60;99.90
18906;DHT22;9585;51.018;4.282;2023-12-14T13:34:20;8.60;99.90
18906;DHT22;9585;51.018;4.282;2023-12-14T13:37:10;8.70;99.90
18906;DHT22;9585;51.018;4.282;2023-12-14T13:39:48;8.70;99.90
18906;DHT22;9585;51.018;4.282;2023-12-14T13:52:59;8.70;99.90
18906;DHT22;9585;51.018;4.282;2023-12-14T13:55:36;8.70;99.90
18906;DHT22;9585;51.018;4.282;2023-12-14T13:58:04;8.70;99.90
18906;DHT22;9585;51.018;4.282;2023-12-14T14:00:32;8.80;99.90
18906;DHT22;9585;51.018;4.282;2023-12-14T14:03:02;8.80;99.90
18906;DHT22;9585;51.018;4.282;2023-12-14T14:05:31;8.80;99.90
18906;DHT22;9585;51.018;4.282;2023-12-14T14:08:06;8.80;99.90
18906;DHT22;9585;51.018;4.282;2023-12-14T14:11:02;8.80;99.90
18906;DHT22;9585;51.018;4.282;2023-12-14T14:14:10;8.90;99.90
18906;DHT22;9585;51.018;4.282;2023-12-14T14:16:57;8.80;99.90
18906;DHT22;9585;51.018;4.282;2023-12-14T14:20:08;8.70;99.90
18906;DHT22;9585;51.018;4.282;2023-12-14T15:35:53;7.60;99.90
18906;DHT22;9585;51.018;4.282;2023-12-14T15:38:22;7.60;99.90
18906;DHT22;9585;51.018;4.282;2023-12-14T15:40:54;7.60;99.90
18906;DHT22;9585;51.018;4.282;2023-12-14T15:43:22;7.60;99.90
18906;DHT22;9585;51.018;4.282;2023-12-14T15:45:52;7.60;99.90
18906;DHT22;9585;51.018;4.282;2023-12-14T15:48:20;7.60;99.90
18906;DHT22;9585;51.018;4.282;2023-12-14T15:50:50;7.60;99.90
18906;DHT22;9585;51.018;4.282;2023-12-14T15:53:24;7.70;99.90
18906;DHT22;9585;51.018;4.282;2023-12-14T15:55:52;7.60;99.90
18906;DHT22;9585;51.018;4.282;2023-12-14T15:58:20;7.60;99.90
18906;DHT22;9585;51.018;4.282;2023-12-14T16:00:48;7.60;99.90
18906;DHT22;9585;51.018;4.282;2023-12-14T16:03:25;7.60;99.90
18906;DHT22;9585;51.018;4.282;2023-12-14T16:05:58;7.60;99.90
18906;DHT22;9585;51.018;4.282;2023-12-14T16:08:29;7.60;99.90
18906;DHT22;9585;51.018;4.282;2023-12-14T16:11:01;7.60;99.90
18906;DHT22;9585;51.018;4.282;2023-12-14T16:13:29;7.50;99.90
18906;DHT22;9585;51.018;4.282;2023-12-14T16:15:56;7.50;99.90
18906;DHT22;9585;51.018;4.282;2023-12-14T16:18:25;7.50;99.90
18906;DHT22;9585;51.018;4.282;2023-12-14T16:20:55;7.50;99.90
18906;DHT22;9585;51.018;4.282;2023-12-14T16:23:25;7.50;99.90
18906;DHT22;9585;51.018;4.282;2023-12-14T16:26:01;7.40;99.90
18906;DHT22;9585;51.018;4.282;2023-12-14T16:28:29;7.40;99.90
18906;DHT22;9585;51.018;4.282;2023-12-14T16:30:57;7.40;99.90
18906;DHT22;9585;51.018;4.282;2023-12-14T16:33:31;7.30;99.90
18906;DHT22;9585;51.018;4.282;2023-12-14T16:35:59;7.30;99.90
18906;DHT22;9585;51.018;4.282;2023-12-14T16:38:36;7.30;99.90
18906;DHT22;9585;51.018;4.282;2023-12-14T16:41:04;7.20;99.90
18906;DHT22;9585;51.018;4.282;2023-12-14T16:43:46;7.20;99.90
18906;DHT22;9585;51.018;4.282;2023-12-14T16:46:20;7.10;99.90
18906;DHT22;9585;51.018;4.282;2023-12-14T16:48:51;7.10;99.90
18906;DHT22;9585;51.018;4.282;2023-12-14T16:51:59;7.00;99.90
18906;DHT22;9585;51.018;4.282;2023-12-14T16:57:51;6.90;99.90
18906;DHT22;9585;51.018;4.282;2023-12-14T17:00:19;6.90;99.90
18906;DHT22;9585;51.018;4.282;2023-12-14T17:02:52;6.80;99.90
18906;DHT22;9585;51.018;4.282;2023-12-14T17:05:20;6.80;99.90
18906;DHT22;9585;51.018;4.282;2023-12-14T17:07:48;6.80;99.90
18906;DHT22;9585;51.018;4.282;2023-12-14T17:10:16;6.80;99.90
18906;DHT22;9585;51.018;4.282;2023-12-14T17:12:45;6.80;99.90
18906;DHT22;9585;51.018;4.282;2023-12-14T17:15:13;6.80;99.90
18906;DHT22;9585;51.018;4.282;2023-12-14T17:17:41;6.80;99.90
18906;DHT22;9585;51.018;4.282;2023-12-14T17:20:10;6.80;99.90
18906;DHT22;9585;51.018;4.282;2023-12-14T17:22:38;6.70;99.90
18906;DHT22;9585;51.018;4.282;2023-12-14T17:25:07;6.70;99.90
18906;DHT22;9585;51.018;4.282;2023-12-14T17:27:41;6.70;99.90
18906;DHT22;9585;51.018;4.282;2023-12-14T17:30:12;6.70;99.90
18906;DHT22;9585;51.018;4.282;2023-12-14T17:32:40;6.60;99.90
18906;DHT22;9585;51.018;4.282;2023-12-14T17:35:08;6.50;99.90
18906;DHT22;9585;51.018;4.282;2023-12-14T17:37:36;6.50;99.90
18906;DHT22;9585;51.018;4.282;2023-12-14T17:40:05;6.50;99.90
18906;DHT22;9585;51.018;4.282;2023-12-14T17:42:34;6.50;99.90
18906;DHT22;9585;51.018;4.282;2023-12-14T17:45:02;6.50;99.90
18906;DHT22;9585;51.018;4.282;2023-12-14T17:47:33;6.50;99.90
18906;DHT22;9585;51.018;4.282;2023-12-14T17:50:00;6.50;99.90
18906;DHT22;9585;51.018;4.282;2023-12-14T17:52:28;6.50;99.90
18906;DHT22;9585;51.018;4.282;2023-12-14T17:54:56;6.50;99.90